sensor_id;sensor_type;location;lat;lon;timestamp;pressure;altitude;pressure_sealevel;temperature;humidity
50368;BME280;36281;34.132;-118.018;2023-06-10T00:00:24;100014.50;;;22.92;56.55
50368;BME280;36281;34.132;-118.018;2023-06-10T00:02:54;100017.50;;;23.09;57.03
50368;BME280;36281;34.132;-118.018;2023-06-10T00:05:24;100021.25;;;23.13;56.12
50368;BME280;36281;34.132;-118.018;2023-06-10T00:07:53;100021.25;;;23.13;55.83
50368;BME280;36281;34.132;-118.018;2023-06-10T00:10:24;100016.66;;;23.14;55.72
50368;BME280;36281;34.132;-118.018;2023-06-10T00:12:55;100020.53;;;23.08;55.76
50368;BME280;36281;34.132;-118.018;2023-06-10T00:15:24;100011.88;;;23.06;55.62
50368;BME280;36281;34.132;-118.018;2023-06-10T00:17:53;100006.06;;;22.99;55.39
50368;BME280;36281;34.132;-118.018;2023-06-10T00:20:23;100010.06;;;23.01;55.63
50368;BME280;36281;34.132;-118.018;2023-06-10T00:22:53;100013.06;;;23.00;56.01
50368;BME280;36281;34.132;-118.018;2023-06-10T00:25:22;100006.13;;;22.93;56.23
50368;BME280;36281;34.132;-118.018;2023-06-10T00:27:51;99995.13;;;22.85;55.93
50368;BME280;36281;34.132;-118.018;2023-06-10T00:30:22;100005.34;;;22.88;55.74
50368;BME280;36281;34.132;-118.018;2023-06-10T00:32:51;100007.28;;;22.82;56.13
50368;BME280;36281;34.132;-118.018;2023-06-10T00:35:20;100015.69;;;22.81;56.63
50368;BME280;36281;34.132;-118.018;2023-06-10T00:37:49;100009.25;;;22.77;56.22
50368;BME280;36281;34.132;-118.018;2023-06-10T00:40:19;100012.00;;;22.71;56.42
50368;BME280;36281;34.132;-118.018;2023-06-10T00:42:48;100016.38;;;22.67;57.16
50368;BME280;36281;34.132;-118.018;2023-06-10T00:45:17;100013.78;;;22.57;56.87
50368;BME280;36281;34.132;-118.018;2023-06-10T00:47:48;100024.44;;;22.49;57.77
50368;BME280;36281;34.132;-118.018;2023-06-10T00:50:17;100019.91;;;22.44;57.03
50368;BME280;36281;34.132;-118.018;2023-06-10T00:52:46;100017.31;;;22.34;57.75
50368;BME280;36281;34.132;-118.018;2023-06-10T00:55:18;100011.13;;;22.33;57.81
50368;BME280;36281;34.132;-118.018;2023-06-10T00:57:48;99996.84;;;22.28;57.91
50368;BME280;36281;34.132;-118.018;2023-06-10T01:00:18;100007.03;;;22.36;57.88
50368;BME280;36281;34.132;-118.018;2023-06-10T01:02:49;100015.72;;;22.33;58.20
50368;BME280;36281;34.132;-118.018;2023-06-10T01:05:21;100008.47;;;22.28;57.94
50368;BME280;36281;34.132;-118.018;2023-06-10T01:07:56;100006.34;;;22.25;57.57
50368;BME280;36281;34.132;-118.018;2023-06-10T01:10:34;100009.88;;;22.21;57.35
50368;BME280;36281;34.132;-118.018;2023-06-10T01:13:06;100017.22;;;22.15;57.43
50368;BME280;36281;34.132;-118.018;2023-06-10T01:15:40;100014.00;;;22.08;57.48
50368;BME280;36281;34.132;-118.018;2023-06-10T01:18:11;100016.59;;;21.94;58.06
50368;BME280;36281;34.132;-118.018;2023-06-10T01:20:46;100019.59;;;21.87;58.28
50368;BME280;36281;34.132;-118.018;2023-06-10T01:23:20;100023.13;;;21.83;58.65
50368;BME280;36281;34.132;-118.018;2023-06-10T01:25:53;100018.66;;;21.73;58.38
50368;BME280;36281;34.132;-118.018;2023-06-10T01:28:29;100024.34;;;21.66;58.77
50368;BME280;36281;34.132;-118.018;2023-06-10T01:31:06;100031.94;;;21.59;58.86
50368;BME280;36281;34.132;-118.018;2023-06-10T01:33:43;100024.78;;;21.45;59.09
50368;BME280;36281;34.132;-118.018;2023-06-10T01:36:13;100027.47;;;21.45;59.56
50368;BME280;36281;34.132;-118.018;2023-06-10T01:38:46;100034.53;;;21.35;59.51
50368;BME280;36281;34.132;-118.018;2023-06-10T01:41:17;100040.22;;;21.29;59.86
50368;BME280;36281;34.132;-118.018;2023-06-10T01:43:46;100032.66;;;21.26;59.78
50368;BME280;36281;34.132;-118.018;2023-06-10T01:46:16;100030.53;;;21.23;60.53
50368;BME280;36281;34.132;-118.018;2023-06-10T01:48:48;100035.66;;;21.24;60.86
50368;BME280;36281;34.132;-118.018;2023-06-10T01:51:17;100029.75;;;21.17;60.91
50368;BME280;36281;34.132;-118.018;2023-06-10T01:53:48;100035.69;;;21.14;60.85
50368;BME280;36281;34.132;-118.018;2023-06-10T01:56:17;100036.22;;;21.16;60.91
50368;BME280;36281;34.132;-118.018;2023-06-10T01:58:48;100032.22;;;21.13;60.58
50368;BME280;36281;34.132;-118.018;2023-06-10T02:01:17;100027.38;;;21.10;60.76
50368;BME280;36281;34.132;-118.018;2023-06-10T02:03:46;100026.00;;;21.08;60.58
50368;BME280;36281;34.132;-118.018;2023-06-10T02:06:15;100033.88;;;21.04;60.60
50368;BME280;36281;34.132;-118.018;2023-06-10T02:08:44;100025.00;;;20.99;60.91
50368;BME280;36281;34.132;-118.018;2023-06-10T02:11:15;100029.56;;;20.98;61.13
50368;BME280;36281;34.132;-118.018;2023-06-10T02:13:44;100030.13;;;20.95;61.18
50368;BME280;36281;34.132;-118.018;2023-06-10T02:16:14;100030.69;;;20.92;61.16
50368;BME280;36281;34.132;-118.018;2023-06-10T02:18:45;100028.00;;;20.87;61.26
50368;BME280;36281;34.132;-118.018;2023-06-10T02:21:14;100019.94;;;20.82;61.26
50368;BME280;36281;34.132;-118.018;2023-06-10T02:23:43;100017.28;;;20.77;61.17
50368;BME280;36281;34.132;-118.018;2023-06-10T02:26:14;100018.66;;;20.74;61.53
50368;BME280;36281;34.132;-118.018;2023-06-10T02:28:44;100014.09;;;20.64;62.00
50368;BME280;36281;34.132;-118.018;2023-06-10T02:31:13;100020.84;;;20.62;62.07
50368;BME280;36281;34.132;-118.018;2023-06-10T02:33:43;100018.72;;;20.54;62.30
50368;BME280;36281;34.132;-118.018;2023-06-10T02:36:13;100020.06;;;20.51;62.30
50368;BME280;36281;34.132;-118.018;2023-06-10T02:38:43;100020.38;;;20.29;62.83
50368;BME280;36281;34.132;-118.018;2023-06-10T02:41:14;100017.38;;;20.31;62.99
50368;BME280;36281;34.132;-118.018;2023-06-10T02:43:43;100026.00;;;20.28;62.93
50368;BME280;36281;34.132;-118.018;2023-06-10T02:46:12;100020.38;;;20.24;63.04
50368;BME280;36281;34.132;-118.018;2023-06-10T02:48:44;100028.16;;;20.21;63.24
50368;BME280;36281;34.132;-118.018;2023-06-10T02:51:13;100034.63;;;20.14;63.42
50368;BME280;36281;34.132;-118.018;2023-06-10T02:53:42;100028.19;;;20.10;63.53
50368;BME280;36281;34.132;-118.018;2023-06-10T02:56:11;100026.81;;;20.08;63.90
50368;BME280;36281;34.132;-118.018;2023-06-10T02:58:42;100031.69;;;20.06;64.08
50368;BME280;36281;34.132;-118.018;2023-06-10T03:01:12;100031.69;;;20.01;63.89
50368;BME280;36281;34.132;-118.018;2023-06-10T03:03:41;100044.56;;;19.99;64.06
50368;BME280;36281;34.132;-118.018;2023-06-10T03:06:11;100044.56;;;19.94;64.27
50368;BME280;36281;34.132;-118.018;2023-06-10T03:08:41;100051.31;;;19.91;64.53
50368;BME280;36281;34.132;-118.018;2023-06-10T03:11:10;100045.94;;;19.86;64.74
50368;BME280;36281;34.132;-118.018;2023-06-10T03:13:39;100048.63;;;19.86;64.59
50368;BME280;36281;34.132;-118.018;2023-06-10T03:16:10;100047.00;;;19.80;64.80
50368;BME280;36281;34.132;-118.018;2023-06-10T03:18:41;100052.63;;;19.78;65.16
50368;BME280;36281;34.132;-118.018;2023-06-10T03:21:10;100046.44;;;19.68;65.38
50368;BME280;36281;34.132;-118.018;2023-06-10T03:23:39;100049.94;;;19.68;65.69
50368;BME280;36281;34.132;-118.018;2023-06-10T03:26:08;100045.91;;;19.66;65.72
50368;BME280;36281;34.132;-118.018;2023-06-10T03:28:38;100053.16;;;19.60;66.01
50368;BME280;36281;34.132;-118.018;2023-06-10T03:31:09;100049.09;;;19.57;66.34
50368;BME280;36281;34.132;-118.018;2023-06-10T03:33:39;100046.13;;;19.54;66.56
50368;BME280;36281;34.132;-118.018;2023-06-10T03:36:08;100045.88;;;19.50;66.65
50368;BME280;36281;34.132;-118.018;2023-06-10T03:38:37;100033.22;;;19.46;67.03
50368;BME280;36281;34.132;-118.018;2023-06-10T03:41:06;100039.13;;;19.43;67.24
50368;BME280;36281;34.132;-118.018;2023-06-10T03:43:35;100031.34;;;19.36;67.41
50368;BME280;36281;34.132;-118.018;2023-06-10T03:46:04;100031.31;;;19.31;67.70
50368;BME280;36281;34.132;-118.018;2023-06-10T03:48:35;100022.19;;;19.27;67.63
50368;BME280;36281;34.132;-118.018;2023-06-10T03:51:05;100024.84;;;19.22;68.07
50368;BME280;36281;34.132;-118.018;2023-06-10T03:53:34;100035.03;;;19.15;68.18
50368;BME280;36281;34.132;-118.018;2023-06-10T03:56:04;100036.34;;;19.07;68.62
50368;BME280;36281;34.132;-118.018;2023-06-10T03:58:33;100037.41;;;19.01;68.76
50368;BME280;36281;34.132;-118.018;2023-06-10T04:01:02;100038.19;;;18.96;69.11
50368;BME280;36281;34.132;-118.018;2023-06-10T04:03:31;100047.03;;;18.92;69.30
50368;BME280;36281;34.132;-118.018;2023-06-10T04:06:03;100042.44;;;18.87;69.49
50368;BME280;36281;34.132;-118.018;2023-06-10T04:08:33;100051.28;;;18.82;69.71
50368;BME280;36281;34.132;-118.018;2023-06-10T04:11:02;100046.69;;;18.78;69.76
50368;BME280;36281;34.132;-118.018;2023-06-10T04:13:31;100052.03;;;18.73;70.22
50368;BME280;36281;34.132;-118.018;2023-06-10T04:16:01;100061.66;;;18.69;70.23
50368;BME280;36281;34.132;-118.018;2023-06-10T04:18:30;100058.38;;;18.62;70.56
50368;BME280;36281;34.132;-118.018;2023-06-10T04:21:00;100058.91;;;18.58;70.80
50368;BME280;36281;34.132;-118.018;2023-06-10T04:23:30;100057.00;;;18.54;70.87
50368;BME280;36281;34.132;-118.018;2023-06-10T04:25:59;100066.66;;;18.50;71.24
50368;BME280;36281;34.132;-118.018;2023-06-10T04:28:29;100068.47;;;18.44;71.60
50368;BME280;36281;34.132;-118.018;2023-06-10T04:30:58;100070.06;;;18.40;72.07
50368;BME280;36281;34.132;-118.018;2023-06-10T04:33:27;100073.25;;;18.37;72.06
50368;BME280;36281;34.132;-118.018;2023-06-10T04:35:57;100063.56;;;18.31;72.24
50368;BME280;36281;34.132;-118.018;2023-06-10T04:38:26;100072.69;;;18.30;72.43
50368;BME280;36281;34.132;-118.018;2023-06-10T04:40:57;100071.63;;;18.31;72.86
50368;BME280;36281;34.132;-118.018;2023-06-10T04:43:26;100081.75;;;18.29;72.74
50368;BME280;36281;34.132;-118.018;2023-06-10T04:45:56;100079.09;;;18.29;72.83
50368;BME280;36281;34.132;-118.018;2023-06-10T04:48:25;100086.09;;;18.30;72.91
50368;BME280;36281;34.132;-118.018;2023-06-10T04:50:55;100087.94;;;18.29;73.05
50368;BME280;36281;34.132;-118.018;2023-06-10T04:53:25;100094.41;;;18.33;72.97
50368;BME280;36281;34.132;-118.018;2023-06-10T04:55:56;100101.66;;;18.33;73.05
50368;BME280;36281;34.132;-118.018;2023-06-10T04:58:26;100101.66;;;18.33;72.91
50368;BME280;36281;34.132;-118.018;2023-06-10T05:00:55;100112.63;;;18.31;72.84
50368;BME280;36281;34.132;-118.018;2023-06-10T05:03:24;100104.84;;;18.30;72.97
50368;BME280;36281;34.132;-118.018;2023-06-10T05:05:53;100110.75;;;18.32;72.95
50368;BME280;36281;34.132;-118.018;2023-06-10T05:08:22;100115.56;;;18.30;73.10
50368;BME280;36281;34.132;-118.018;2023-06-10T05:10:51;100109.16;;;18.31;73.09
50368;BME280;36281;34.132;-118.018;2023-06-10T05:13:27;100108.56;;;18.29;73.09
50368;BME280;36281;34.132;-118.018;2023-06-10T05:16:05;100114.75;;;18.29;73.01
50368;BME280;36281;34.132;-118.018;2023-06-10T05:18:35;100110.44;;;18.28;72.99
50368;BME280;36281;34.132;-118.018;2023-06-10T05:21:04;100112.59;;;18.26;73.15
50368;BME280;36281;34.132;-118.018;2023-06-10T05:23:33;100105.63;;;18.25;73.28
50368;BME280;36281;34.132;-118.018;2023-06-10T05:26:03;100112.84;;;18.25;73.15
50368;BME280;36281;34.132;-118.018;2023-06-10T05:28:33;100117.66;;;18.23;73.44
50368;BME280;36281;34.132;-118.018;2023-06-10T05:31:02;100120.06;;;18.24;73.54
50368;BME280;36281;34.132;-118.018;2023-06-10T05:33:31;100114.16;;;18.22;73.39
50368;BME280;36281;34.132;-118.018;2023-06-10T05:36:00;100112.56;;;18.21;73.30
50368;BME280;36281;34.132;-118.018;2023-06-10T05:38:30;100113.63;;;18.20;73.34
50368;BME280;36281;34.132;-118.018;2023-06-10T05:40:59;100119.22;;;18.19;73.45
50368;BME280;36281;34.132;-118.018;2023-06-10T05:43:28;100115.72;;;18.18;73.67
50368;BME280;36281;34.132;-118.018;2023-06-10T05:45:59;100106.09;;;18.17;74.09
50368;BME280;36281;34.132;-118.018;2023-06-10T05:48:28;100109.56;;;18.18;73.95
50368;BME280;36281;34.132;-118.018;2023-06-10T05:50:57;100106.09;;;18.17;74.19
50368;BME280;36281;34.132;-118.018;2023-06-10T05:53:26;100095.63;;;18.16;74.32
50368;BME280;36281;34.132;-118.018;2023-06-10T05:55:56;100102.03;;;18.15;74.64
50368;BME280;36281;34.132;-118.018;2023-06-10T05:58:26;100087.81;;;18.14;74.63
50368;BME280;36281;34.132;-118.018;2023-06-10T06:00:55;100081.38;;;18.10;74.65
50368;BME280;36281;34.132;-118.018;2023-06-10T06:03:26;100080.53;;;18.09;74.74
50368;BME280;36281;34.132;-118.018;2023-06-10T06:05:57;100075.44;;;18.08;74.81
50368;BME280;36281;34.132;-118.018;2023-06-10T06:08:26;100071.41;;;18.05;75.17
50368;BME280;36281;34.132;-118.018;2023-06-10T06:10:55;100070.84;;;18.03;75.05
50368;BME280;36281;34.132;-118.018;2023-06-10T06:13:24;100073.00;;;18.01;75.14
50368;BME280;36281;34.132;-118.018;2023-06-10T06:15:53;100056.34;;;17.99;75.38
50368;BME280;36281;34.132;-118.018;2023-06-10T06:18:22;100047.75;;;17.97;75.63
50368;BME280;36281;34.132;-118.018;2023-06-10T06:20:53;100050.94;;;17.94;75.58
50368;BME280;36281;34.132;-118.018;2023-06-10T06:23:22;100048.53;;;17.93;75.52
50368;BME280;36281;34.132;-118.018;2023-06-10T06:25:51;100047.41;;;17.89;75.47
50368;BME280;36281;34.132;-118.018;2023-06-10T06:28:20;100039.63;;;17.87;75.86
50368;BME280;36281;34.132;-118.018;2023-06-10T06:30:50;100045.00;;;17.87;75.95
50368;BME280;36281;34.132;-118.018;2023-06-10T06:33:19;100042.81;;;17.84;75.98
50368;BME280;36281;34.132;-118.018;2023-06-10T06:35:48;100050.31;;;17.82;76.18
50368;BME280;36281;34.132;-118.018;2023-06-10T06:38:19;100048.13;;;17.79;76.35
50368;BME280;36281;34.132;-118.018;2023-06-10T06:40:48;100050.28;;;17.77;76.53
50368;BME280;36281;34.132;-118.018;2023-06-10T06:43:17;100049.69;;;17.75;76.71
50368;BME280;36281;34.132;-118.018;2023-06-10T06:45:47;100047.84;;;17.75;76.86
50368;BME280;36281;34.132;-118.018;2023-06-10T06:48:16;100044.59;;;17.73;76.83
50368;BME280;36281;34.132;-118.018;2023-06-10T06:50:45;100045.41;;;17.74;77.19
50368;BME280;36281;34.132;-118.018;2023-06-10T06:53:15;100045.41;;;17.74;77.14
50368;BME280;36281;34.132;-118.018;2023-06-10T06:55:46;100044.84;;;17.72;77.25
50368;BME280;36281;34.132;-118.018;2023-06-10T06:58:15;100044.84;;;17.72;77.20
50368;BME280;36281;34.132;-118.018;2023-06-10T07:00:44;100037.59;;;17.72;77.65
50368;BME280;36281;34.132;-118.018;2023-06-10T07:03:13;100036.81;;;17.72;77.50
50368;BME280;36281;34.132;-118.018;2023-06-10T07:05:42;100027.66;;;17.68;77.86
50368;BME280;36281;34.132;-118.018;2023-06-10T07:08:11;100027.97;;;17.71;78.02
50368;BME280;36281;34.132;-118.018;2023-06-10T07:10:40;100018.31;;;17.70;77.77
50368;BME280;36281;34.132;-118.018;2023-06-10T07:13:11;100018.31;;;17.70;77.64
50368;BME280;36281;34.132;-118.018;2023-06-10T07:15:42;100017.47;;;17.70;77.58
50368;BME280;36281;34.132;-118.018;2023-06-10T07:18:11;100011.09;;;17.71;77.56
50368;BME280;36281;34.132;-118.018;2023-06-10T07:20:40;99995.00;;;17.71;77.57
50368;BME280;36281;34.132;-118.018;2023-06-10T07:23:09;99995.00;;;17.71;77.61
50368;BME280;36281;34.132;-118.018;2023-06-10T07:25:39;99986.41;;;17.69;77.44
50368;BME280;36281;34.132;-118.018;2023-06-10T07:28:11;99966.50;;;17.60;77.66
50368;BME280;36281;34.132;-118.018;2023-06-10T07:30:40;99973.28;;;17.67;77.76
50368;BME280;36281;34.132;-118.018;2023-06-10T07:33:09;99969.22;;;17.65;77.74
50368;BME280;36281;34.132;-118.018;2023-06-10T07:35:39;99960.91;;;17.61;77.89
50368;BME280;36281;34.132;-118.018;2023-06-10T07:38:08;99960.34;;;17.59;77.87
50368;BME280;36281;34.132;-118.018;2023-06-10T07:40:37;99955.75;;;17.54;77.90
50368;BME280;36281;34.132;-118.018;2023-06-10T07:43:06;99954.94;;;17.54;77.91
50368;BME280;36281;34.132;-118.018;2023-06-10T07:45:39;99949.06;;;17.52;77.83
50368;BME280;36281;34.132;-118.018;2023-06-10T07:48:08;99945.00;;;17.49;77.87
50368;BME280;36281;34.132;-118.018;2023-06-10T07:50:37;99942.06;;;17.46;78.04
50368;BME280;36281;34.132;-118.018;2023-06-10T07:53:06;99941.22;;;17.45;78.07
50368;BME280;36281;34.132;-118.018;2023-06-10T07:55:35;99949.50;;;17.44;77.84
50368;BME280;36281;34.132;-118.018;2023-06-10T07:58:04;99960.47;;;17.42;78.04
50368;BME280;36281;34.132;-118.018;2023-06-10T08:00:33;99961.28;;;17.43;78.17
50368;BME280;36281;34.132;-118.018;2023-06-10T08:03:04;99957.22;;;17.40;78.07
50368;BME280;36281;34.132;-118.018;2023-06-10T08:05:33;99955.63;;;17.39;78.12
50368;BME280;36281;34.132;-118.018;2023-06-10T08:08:03;99947.06;;;17.37;78.35
50368;BME280;36281;34.132;-118.018;2023-06-10T08:10:32;99954.28;;;17.37;78.23
50368;BME280;36281;34.132;-118.018;2023-06-10T08:13:01;99943.00;;;17.35;78.32
50368;BME280;36281;34.132;-118.018;2023-06-10T08:15:30;99951.03;;;17.35;78.10
50368;BME280;36281;34.132;-118.018;2023-06-10T08:18:00;99959.31;;;17.33;78.40
50368;BME280;36281;34.132;-118.018;2023-06-10T08:20:30;99941.66;;;17.32;78.41
50368;BME280;36281;34.132;-118.018;2023-06-10T08:23:00;99947.28;;;17.30;78.44
50368;BME280;36281;34.132;-118.018;2023-06-10T08:25:29;99948.56;;;17.28;78.91
50368;BME280;36281;34.132;-118.018;2023-06-10T08:27:59;99947.47;;;17.24;78.94
50368;BME280;36281;34.132;-118.018;2023-06-10T08:30:28;99942.63;;;17.21;79.16
50368;BME280;36281;34.132;-118.018;2023-06-10T08:32:57;99946.59;;;17.18;79.21
50368;BME280;36281;34.132;-118.018;2023-06-10T08:35:26;99951.69;;;17.20;79.08
50368;BME280;36281;34.132;-118.018;2023-06-10T08:37:57;99945.53;;;17.19;79.04
50368;BME280;36281;34.132;-118.018;2023-06-10T08:40:26;99950.66;;;17.21;79.08
50368;BME280;36281;34.132;-118.018;2023-06-10T08:43:02;99951.16;;;17.18;79.26
50368;BME280;36281;34.132;-118.018;2023-06-10T08:45:36;99956.50;;;17.18;79.25
50368;BME280;36281;34.132;-118.018;2023-06-10T08:48:06;99946.88;;;17.17;79.24
50368;BME280;36281;34.132;-118.018;2023-06-10T08:50:36;99940.94;;;17.15;79.45
50368;BME280;36281;34.132;-118.018;2023-06-10T08:53:07;99946.88;;;17.17;79.50
50368;BME280;36281;34.132;-118.018;2023-06-10T08:55:38;99941.50;;;17.17;79.50
50368;BME280;36281;34.132;-118.018;2023-06-10T08:58:09;99932.09;;;17.14;79.60
50368;BME280;36281;34.132;-118.018;2023-06-10T09:00:39;99930.00;;;17.16;79.69
50368;BME280;36281;34.132;-118.018;2023-06-10T09:03:08;99917.66;;;17.15;79.67
50368;BME280;36281;34.132;-118.018;2023-06-10T09:05:38;99909.91;;;17.14;79.31
50368;BME280;36281;34.132;-118.018;2023-06-10T09:08:09;99919.00;;;17.13;79.29
50368;BME280;36281;34.132;-118.018;2023-06-10T09:10:38;99928.09;;;17.12;79.41
50368;BME280;36281;34.132;-118.018;2023-06-10T09:13:08;99918.44;;;17.11;79.53
50368;BME280;36281;34.132;-118.018;2023-06-10T09:15:37;99914.94;;;17.10;79.80
50368;BME280;36281;34.132;-118.018;2023-06-10T09:18:08;99907.16;;;17.09;79.85
50368;BME280;36281;34.132;-118.018;2023-06-10T09:20:39;99912.53;;;17.09;80.29
50368;BME280;36281;34.132;-118.018;2023-06-10T09:23:10;99917.34;;;17.07;79.92
50368;BME280;36281;34.132;-118.018;2023-06-10T09:25:39;99912.53;;;17.09;79.82
50368;BME280;36281;34.132;-118.018;2023-06-10T09:28:14;99909.84;;;17.09;79.60
50368;BME280;36281;34.132;-118.018;2023-06-10T09:30:44;99911.72;;;17.08;79.28
50368;BME280;36281;34.132;-118.018;2023-06-10T09:33:14;99927.50;;;17.10;79.07
50368;BME280;36281;34.132;-118.018;2023-06-10T09:35:48;99935.53;;;17.10;79.11
50368;BME280;36281;34.132;-118.018;2023-06-10T09:38:22;99937.19;;;17.11;78.74
50368;BME280;36281;34.132;-118.018;2023-06-10T09:40:52;99931.81;;;17.11;78.70
50368;BME280;36281;34.132;-118.018;2023-06-10T09:43:21;99926.47;;;17.11;78.77
50368;BME280;36281;34.132;-118.018;2023-06-10T09:45:51;99934.50;;;17.11;79.04
50368;BME280;36281;34.132;-118.018;2023-06-10T09:48:23;99936.13;;;17.12;78.86
50368;BME280;36281;34.132;-118.018;2023-06-10T09:50:52;99919.47;;;17.10;78.98
50368;BME280;36281;34.132;-118.018;2023-06-10T09:53:23;99917.38;;;17.12;79.16
50368;BME280;36281;34.132;-118.018;2023-06-10T09:55:52;99902.88;;;17.08;79.10
50368;BME280;36281;34.132;-118.018;2023-06-10T09:58:35;99904.22;;;17.10;79.18
50368;BME280;36281;34.132;-118.018;2023-06-10T10:01:09;99895.97;;;17.12;79.08
50368;BME280;36281;34.132;-118.018;2023-06-10T10:03:44;99892.22;;;17.13;79.03
50368;BME280;36281;34.132;-118.018;2023-06-10T10:06:15;99891.44;;;17.12;78.88
50368;BME280;36281;34.132;-118.018;2023-06-10T10:08:47;99891.16;;;17.14;78.76
50368;BME280;36281;34.132;-118.018;2023-06-10T10:11:17;99884.19;;;17.13;78.99
50368;BME280;36281;34.132;-118.018;2023-06-10T10:13:48;99876.16;;;17.13;78.94
50368;BME280;36281;34.132;-118.018;2023-06-10T10:16:19;99875.09;;;17.14;78.88
50368;BME280;36281;34.132;-118.018;2023-06-10T10:18:54;99866.28;;;17.13;78.74
50368;BME280;36281;34.132;-118.018;2023-06-10T10:21:27;99855.31;;;17.15;78.68
50368;BME280;36281;34.132;-118.018;2023-06-10T10:24:05;99832.81;;;17.11;78.42
50368;BME280;36281;34.132;-118.018;2023-06-10T10:26:37;99826.94;;;17.14;78.06
50368;BME280;36281;34.132;-118.018;2023-06-10T10:29:11;99827.19;;;17.12;78.35
50368;BME280;36281;34.132;-118.018;2023-06-10T10:31:44;99816.19;;;17.09;78.80
50368;BME280;36281;34.132;-118.018;2023-06-10T10:34:16;99802.78;;;17.03;78.85
50368;BME280;36281;34.132;-118.018;2023-06-10T10:36:46;99810.25;;;17.01;78.99
50368;BME280;36281;34.132;-118.018;2023-06-10T10:39:18;99812.31;;;16.94;79.27
50368;BME280;36281;34.132;-118.018;2023-06-10T10:41:48;99813.88;;;16.90;79.46
50368;BME280;36281;34.132;-118.018;2023-06-10T10:44:19;99804.53;;;16.88;79.47
50368;BME280;36281;34.132;-118.018;2023-06-10T10:46:50;99801.53;;;16.84;79.49
50368;BME280;36281;34.132;-118.018;2023-06-10T10:49:20;99807.41;;;16.81;79.40
50368;BME280;36281;34.132;-118.018;2023-06-10T10:51:58;99783.22;;;16.71;79.46
50368;BME280;36281;34.132;-118.018;2023-06-10T10:54:33;99793.44;;;16.74;79.63
50368;BME280;36281;34.132;-118.018;2023-06-10T10:57:12;99806.53;;;16.75;80.09
50368;BME280;36281;34.132;-118.018;2023-06-10T10:59:55;99798.16;;;16.67;80.20
50368;BME280;36281;34.132;-118.018;2023-06-10T11:02:40;99812.63;;;16.71;80.65
50368;BME280;36281;34.132;-118.018;2023-06-10T11:05:13;99819.28;;;16.68;80.62
50368;BME280;36281;34.132;-118.018;2023-06-10T11:07:53;99823.81;;;16.68;80.78
50368;BME280;36281;34.132;-118.018;2023-06-10T11:10:32;99823.25;;;16.66;80.92
50368;BME280;36281;34.132;-118.018;2023-06-10T11:13:07;99830.25;;;16.67;81.13
50368;BME280;36281;34.132;-118.018;2023-06-10T11:15:43;99835.06;;;16.70;81.20
50368;BME280;36281;34.132;-118.018;2023-06-10T11:18:22;99839.38;;;16.71;81.57
50368;BME280;36281;34.132;-118.018;2023-06-10T11:20:54;99852.25;;;16.74;81.63
50368;BME280;36281;34.132;-118.018;2023-06-10T11:23:37;99851.19;;;16.75;81.79
50368;BME280;36281;34.132;-118.018;2023-06-10T11:26:16;99849.09;;;16.77;81.64
50368;BME280;36281;34.132;-118.018;2023-06-10T11:29:06;99854.97;;;16.79;81.88
50368;BME280;36281;34.132;-118.018;2023-06-10T11:31:44;99851.25;;;16.80;82.14
50368;BME280;36281;34.132;-118.018;2023-06-10T11:34:14;99849.94;;;16.83;82.21
50368;BME280;36281;34.132;-118.018;2023-06-10T11:36:44;99841.66;;;16.84;82.45
50368;BME280;36281;34.132;-118.018;2023-06-10T11:39:14;99844.34;;;16.84;82.38
50368;BME280;36281;34.132;-118.018;2023-06-10T11:41:46;99837.38;;;16.83;82.67
50368;BME280;36281;34.132;-118.018;2023-06-10T11:44:15;99833.31;;;16.80;82.58
50368;BME280;36281;34.132;-118.018;2023-06-10T11:46:48;99841.16;;;16.87;82.43
50368;BME280;36281;34.132;-118.018;2023-06-10T11:49:20;99831.53;;;16.86;82.20
50368;BME280;36281;34.132;-118.018;2023-06-10T11:51:49;99834.75;;;16.88;81.91
50368;BME280;36281;34.132;-118.018;2023-06-10T11:54:20;99812.28;;;16.89;82.63
50368;BME280;36281;34.132;-118.018;2023-06-10T11:56:57;99788.13;;;16.79;82.92
50368;BME280;36281;34.132;-118.018;2023-06-10T11:59:27;99796.22;;;16.89;82.66
50368;BME280;36281;34.132;-118.018;2023-06-10T12:01:57;99785.22;;;16.86;82.60
50368;BME280;36281;34.132;-118.018;2023-06-10T12:04:27;99793.56;;;16.89;82.02
50368;BME280;36281;34.132;-118.018;2023-06-10T12:06:56;99795.72;;;16.92;81.70
50368;BME280;36281;34.132;-118.018;2023-06-10T12:09:26;99797.31;;;16.88;81.41
50368;BME280;36281;34.132;-118.018;2023-06-10T12:11:58;99813.38;;;16.93;81.34
50368;BME280;36281;34.132;-118.018;2023-06-10T12:14:53;99813.38;;;16.93;81.10
50368;BME280;36281;34.132;-118.018;2023-06-10T12:17:34;99829.19;;;16.95;81.30
50368;BME280;36281;34.132;-118.018;2023-06-10T12:20:07;99838.00;;;16.95;81.41
50368;BME280;36281;34.132;-118.018;2023-06-10T12:22:38;99829.19;;;16.95;81.10
50368;BME280;36281;34.132;-118.018;2023-06-10T12:25:09;99848.72;;;16.95;81.00
50368;BME280;36281;34.132;-118.018;2023-06-10T12:27:50;99859.72;;;16.99;81.19
50368;BME280;36281;34.132;-118.018;2023-06-10T12:30:21;99854.38;;;16.99;80.82
50368;BME280;36281;34.132;-118.018;2023-06-10T12:32:50;99851.97;;;16.97;81.07
50368;BME280;36281;34.132;-118.018;2023-06-10T12:35:21;99845.28;;;17.00;80.82
50368;BME280;36281;34.132;-118.018;2023-06-10T12:37:56;99841.56;;;17.01;81.30
50368;BME280;36281;34.132;-118.018;2023-06-10T12:40:29;99827.34;;;17.00;81.63
50368;BME280;36281;34.132;-118.018;2023-06-10T12:43:02;99825.75;;;16.99;82.06